createdAt,value
2023-02-22T00:02:14.538Z,1800.02112
2023-02-22T00:17:16.809Z,1470.45349
2023-02-22T00:32:19.358Z,1031.35303
2023-02-22T00:47:21.713Z,636.84106
2023-02-22T01:02:23.969Z,297.58023
2023-02-22T01:17:26.623Z,88.20782
2023-02-22T01:32:28.884Z,17.4477
2023-02-22T01:47:31.232Z,0.96932
2023-02-22T02:02:33.455Z,1.93863
2023-02-22T02:17:35.716Z,1.93863
2023-02-22T02:32:37.969Z,1.93863
2023-02-22T02:47:40.329Z,1.93863
2023-02-22T03:02:42.792Z,1.93863
2023-02-22T03:17:45.073Z,1.93863
2023-02-22T03:32:47.273Z,1.93863
2023-02-22T03:47:49.478Z,1.93863
2023-02-22T04:02:51.811Z,1.93863
2023-02-22T04:17:54.079Z,1.93863
2023-02-22T04:32:56.536Z,1.93863
2023-02-22T04:47:58.748Z,1.93863
2023-02-22T05:03:01.000Z,1.93863
2023-02-22T05:18:03.193Z,1.93863
2023-02-22T05:33:05.421Z,1.93863
2023-02-22T05:48:07.685Z,1.93863
2023-02-22T06:03:09.943Z,0
2023-02-22T06:18:12.192Z,0
2023-02-22T06:33:14.670Z,0
2023-02-22T06:48:16.906Z,0
2023-02-22T07:03:19.425Z,0
2023-02-22T07:18:21.893Z,0
2023-02-22T07:33:24.257Z,0
2023-02-22T07:48:26.643Z,0
2023-02-22T08:03:28.974Z,0
2023-02-22T08:18:31.274Z,0
2023-02-22T08:33:33.629Z,0
2023-02-22T08:48:35.981Z,0
2023-02-22T09:03:38.270Z,0
2023-02-22T09:18:44.239Z,0
2023-02-22T09:33:47.539Z,0
2023-02-22T09:48:49.859Z,0
2023-02-22T10:03:52.140Z,0
2023-02-22T10:18:54.416Z,0
2023-02-22T10:33:56.667Z,0
2023-02-22T10:48:58.915Z,0
2023-02-22T11:04:01.356Z,0
2023-02-22T11:19:03.673Z,0
2023-02-22T11:34:05.907Z,0
2023-02-22T11:49:08.160Z,0
2023-02-22T12:04:10.762Z,0
2023-02-22T12:19:13.279Z,0
2023-02-22T12:34:15.579Z,0
2023-02-22T12:49:17.906Z,0
2023-02-22T13:04:21.533Z,0
2023-02-22T13:19:23.863Z,0
2023-02-22T13:34:26.272Z,0
2023-02-22T13:49:28.476Z,0
2023-02-22T14:04:30.764Z,0
2023-02-22T14:19:33.024Z,0.96932
2023-02-22T14:34:35.300Z,30.04882
2023-02-22T14:49:37.508Z,172.53838
2023-02-22T15:04:39.770Z,466.24133
2023-02-22T15:19:42.085Z,917.94293
2023-02-22T15:34:44.351Z,1600.34192
2023-02-22T15:49:46.563Z,2359.31689
2023-02-22T16:04:59.278Z,3218.13159
2023-02-22T16:20:02.376Z,3840.43286
2023-02-22T16:35:04.659Z,4410.39111
2023-02-22T16:50:06.914Z,5583.26416
2023-02-22T17:05:09.209Z,7044.99414
2023-02-22T17:20:11.510Z,8143.22998
2023-02-22T17:35:13.847Z,8915.77539
2023-02-22T17:50:16.072Z,12101.91895
2023-02-22T18:05:18.339Z,14417.61719
2023-02-22T18:20:20.582Z,16600.51758
2023-02-22T18:35:22.818Z,18284.2207
2023-02-22T18:50:25.186Z,22802.20703
2023-02-22T19:05:27.543Z,25787.70117
2023-02-22T19:20:29.768Z,15630.23242
2023-02-22T19:35:32.007Z,15119.40234
2023-02-22T19:50:34.324Z,14845.08594
2023-02-22T20:05:36.529Z,12732.94434
2023-02-22T20:20:39.152Z,12403.37695
2023-02-22T20:35:41.388Z,12606.93359
2023-02-22T20:50:43.674Z,12310.32227
2023-02-22T21:05:45.932Z,11324.52734
2023-02-22T21:20:48.388Z,10201.08887
2023-02-22T21:35:50.605Z,9932.58887
2023-02-22T21:50:52.855Z,9559.40137
2023-02-22T22:05:55.085Z,8816.90527
2023-02-22T22:20:58.014Z,8618.19531
2023-02-22T22:36:00.267Z,9036.93945
2023-02-22T22:51:02.673Z,8221.74414
2023-02-22T23:06:05.157Z,6918.01367
2023-02-22T23:21:07.350Z,6199.74951
2023-02-22T23:36:09.744Z,5457.25293
2023-02-22T23:51:12.016Z,4158.36865
